Time;durP1;ratioP1;P1;durP2;ratioP2;P2;SDS_P1;SDS_P2;PMS_P1;PMS_P2;Temp;Humidity;BMP_temperature;BMP_pressure;BME280_temperature;BME280_humidity;BME280_pressure;Samples;Min_cycle;Max_cycle;Signal;HPM_P1;HPM_P2
2023/08/05 00:00:53;;;;;;;0.95;0.50;;;22.60;94.00;;;;;;4961917;28;20059;-77
2023/08/05 00:03:19;;;;;;;1.25;0.43;;;22.50;93.80;;;;;;4956827;28;20034;-76
2023/08/05 00:05:44;;;;;;;0.70;0.60;;;22.50;93.90;;;;;;4964297;28;20129;-77
2023/08/05 00:08:10;;;;;;;2.88;0.70;;;22.50;94.00;;;;;;4961964;28;20030;-77
2023/08/05 00:10:36;;;;;;;0.65;0.40;;;22.50;94.00;;;;;;4951551;28;20037;-77
2023/08/05 00:13:02;;;;;;;3.65;0.47;;;22.50;94.10;;;;;;4972743;28;20113;-77
2023/08/05 00:15:28;;;;;;;2.42;0.60;;;22.40;94.10;;;;;;4973350;28;20548;-77
2023/08/05 00:17:54;;;;;;;0.95;0.52;;;22.50;94.10;;;;;;4958478;28;20039;-77
2023/08/05 00:20:19;;;;;;;1.20;0.60;;;22.40;94.00;;;;;;4963209;28;20030;-78
2023/08/05 00:22:45;;;;;;;1.42;0.60;;;22.40;94.10;;;;;;4962825;28;20442;-78
2023/08/05 00:25:11;;;;;;;1.17;0.43;;;22.40;94.20;;;;;;4973243;28;20019;-79
2023/08/05 00:27:36;;;;;;;2.33;0.90;;;22.40;94.30;;;;;;4962209;28;20067;-77
2023/08/05 00:30:03;;;;;;;1.83;0.63;;;22.40;94.30;;;;;;4960284;28;20436;-78
2023/08/05 00:32:29;;;;;;;1.08;0.60;;;22.40;94.40;;;;;;4956468;28;20051;-78
2023/08/05 00:34:56;;;;;;;1.02;0.60;;;22.40;94.50;;;;;;4968531;28;20110;-78
2023/08/05 00:37:22;;;;;;;1.05;0.55;;;22.40;94.60;;;;;;4963799;28;20442;-78
2023/08/05 00:39:47;;;;;;;0.80;0.55;;;22.40;94.50;;;;;;4969714;28;20035;-79
2023/08/05 00:42:18;;;;;;;0.88;0.60;;;22.40;94.20;;;;;;4949082;29;20027;-79
2023/08/05 00:44:44;;;;;;;0.93;0.52;;;22.30;94.30;;;;;;4954964;28;20031;-78
2023/08/05 00:47:10;;;;;;;0.80;0.70;;;22.20;94.60;;;;;;4961012;28;20031;-78
2023/08/05 00:49:36;;;;;;;1.55;0.60;;;22.20;94.60;;;;;;4970459;28;20102;-78
2023/08/05 00:52:04;;;;;;;1.30;0.80;;;22.10;94.60;;;;;;4957108;28;20043;-78
2023/08/05 00:54:29;;;;;;;0.88;0.50;;;22.10;94.80;;;;;;4970484;28;20065;-77
2023/08/05 00:56:55;;;;;;;2.38;0.90;;;22.10;94.80;;;;;;4963109;28;20067;-79
2023/08/05 00:59:21;;;;;;;1.00;0.60;;;22.10;94.90;;;;;;4968983;28;20054;-79
2023/08/05 01:01:47;;;;;;;1.30;0.50;;;22.10;94.70;;;;;;4971179;28;20038;-79
2023/08/05 01:04:12;;;;;;;2.45;0.70;;;22.10;94.90;;;;;;4960928;28;20043;-78
2023/08/05 01:06:40;;;;;;;1.17;0.40;;;22.10;94.80;;;;;;4965758;28;20041;-79
2023/08/05 01:09:06;;;;;;;0.95;0.70;;;22.20;94.80;;;;;;4955811;28;20023;-79
2023/08/05 01:11:32;;;;;;;3.00;0.70;;;22.20;94.70;;;;;;4961772;28;20263;-79
2023/08/05 01:13:58;;;;;;;0.70;0.50;;;22.20;94.70;;;;;;4959129;28;20462;-79
2023/08/05 01:16:23;;;;;;;1.33;0.68;;;22.30;94.60;;;;;;4959026;28;20098;-79
2023/08/05 01:18:49;;;;;;;1.02;0.57;;;22.20;94.70;;;;;;4955253;28;20114;-79
2023/08/05 01:21:25;;;;;;;0.55;0.55;;;22.20;94.80;;;;;;4946361;28;20117;-79
2023/08/05 01:23:59;;;;;;;1.35;0.70;;;22.20;94.90;;;;;;4972479;28;20373;-78
2023/08/05 01:26:25;;;;;;;1.25;0.60;;;22.20;94.90;;;;;;4961370;28;20034;-78
2023/08/05 01:28:52;;;;;;;1.42;0.50;;;22.20;95.00;;;;;;4968456;28;20355;-78
2023/08/05 01:31:19;;;;;;;1.08;0.40;;;22.20;95.00;;;;;;4973729;28;20035;-78
2023/08/05 01:33:46;;;;;;;0.75;0.57;;;22.30;95.00;;;;;;4971818;28;20031;-78
2023/08/05 01:36:19;;;;;;;0.73;0.60;;;22.30;94.90;;;;;;4953387;28;20034;-78
2023/08/05 01:38:47;;;;;;;1.17;0.60;;;22.20;94.80;;;;;;4964193;28;20035;-79
2023/08/05 01:41:14;;;;;;;0.50;0.50;;;22.30;94.80;;;;;;4971947;28;20082;-83
2023/08/05 01:43:39;;;;;;;1.10;0.60;;;22.30;94.80;;;;;;4966118;28;20042;-83
2023/08/05 01:46:05;;;;;;;1.15;0.60;;;22.20;94.70;;;;;;4969050;28;20035;-84
2023/08/05 01:48:31;;;;;;;1.45;0.52;;;22.10;94.70;;;;;;4967578;28;20412;-85
2023/08/05 01:50:56;;;;;;;2.75;0.90;;;22.10;94.90;;;;;;4963743;28;20038;-87
2023/08/05 01:53:22;;;;;;;1.20;0.47;;;22.00;95.00;;;;;;4967236;28;20066;-87
2023/08/05 01:55:47;;;;;;;2.40;0.57;;;21.90;95.20;;;;;;4968272;28;20069;-87
2023/08/05 01:58:13;;;;;;;1.17;0.60;;;21.90;95.20;;;;;;4960998;28;20027;-87
2023/08/05 02:00:39;;;;;;;0.60;0.50;;;21.90;95.40;;;;;;4965067;28;20035;-87
2023/08/05 02:03:04;;;;;;;1.20;0.77;;;21.90;95.60;;;;;;4962987;28;20533;-88
2023/08/05 02:05:30;;;;;;;5.10;0.70;;;21.80;95.60;;;;;;4965914;28;20121;-85
2023/08/05 02:07:56;;;;;;;1.02;0.55;;;21.90;95.70;;;;;;4972333;28;20099;-86
2023/08/05 02:10:22;;;;;;;3.83;0.85;;;21.90;95.70;;;;;;4971688;28;20039;-83
2023/08/05 02:12:47;;;;;;;1.55;0.50;;;21.90;95.80;;;;;;4960949;28;20477;-83
2023/08/05 02:15:13;;;;;;;1.40;0.80;;;21.90;95.80;;;;;;4950889;28;20031;-83
2023/08/05 02:17:39;;;;;;;1.42;0.73;;;21.90;95.80;;;;;;4972688;28;20074;-83
2023/08/05 02:20:05;;;;;;;1.13;0.90;;;21.80;95.80;;;;;;4969442;28;20031;-83
2023/08/05 02:22:31;;;;;;;0.85;0.65;;;21.80;95.80;;;;;;4963331;28;20026;-83
2023/08/05 02:24:56;;;;;;;0.95;0.57;;;21.80;95.90;;;;;;4972779;28;20046;-84
2023/08/05 02:27:22;;;;;;;1.98;1.00;;;21.80;95.90;;;;;;4942236;29;20118;-83
2023/08/05 02:29:48;;;;;;;1.27;0.73;;;21.80;95.80;;;;;;4971760;28;20047;-83
2023/08/05 02:32:13;;;;;;;3.03;1.00;;;21.80;95.90;;;;;;4970539;28;20031;-83
2023/08/05 02:34:39;;;;;;;1.10;0.80;;;21.80;95.90;;;;;;4967758;28;20083;-83
2023/08/05 02:37:05;;;;;;;3.38;1.00;;;21.80;96.00;;;;;;4972722;28;20042;-82
2023/08/05 02:39:31;;;;;;;1.48;0.82;;;21.80;95.90;;;;;;4961580;28;20026;-82
2023/08/05 02:41:56;;;;;;;1.30;0.75;;;21.80;96.20;;;;;;4972435;28;20113;-82
2023/08/05 02:44:22;;;;;;;4.45;1.30;;;21.80;96.10;;;;;;4959006;28;20031;-82
2023/08/05 02:46:48;;;;;;;1.17;0.80;;;21.70;96.00;;;;;;4954599;28;20106;-81
2023/08/05 02:49:13;;;;;;;2.90;1.02;;;21.70;96.10;;;;;;4959843;28;20038;-82
2023/08/05 02:51:39;;;;;;;3.67;0.82;;;21.70;96.00;;;;;;4971063;28;20532;-83
2023/08/05 02:54:05;;;;;;;1.27;0.75;;;21.70;96.10;;;;;;4966831;28;20058;-83
2023/08/05 02:56:33;;;;;;;1.23;0.50;;;21.60;96.00;;;;;;4966582;28;20031;-83
2023/08/05 02:58:59;;;;;;;1.17;0.80;;;21.60;96.10;;;;;;4970003;28;20039;-82
2023/08/05 03:01:25;;;;;;;1.40;1.08;;;21.60;96.00;;;;;;4966728;28;20041;-84
2023/08/05 03:06:32;;;;;;;3.58;1.10;;;21.50;96.10;;;;;;4306068;26;20055;-84
2023/08/05 03:08:58;;;;;;;1.70;0.90;;;21.50;96.30;;;;;;4958256;28;20031;-83
2023/08/05 03:11:24;;;;;;;1.42;0.95;;;21.50;96.30;;;;;;4961470;28;20038;-84
2023/08/05 03:13:50;;;;;;;3.47;1.35;;;21.50;96.40;;;;;;4957258;28;20042;-86
2023/08/05 03:16:16;;;;;;;2.60;0.90;;;21.50;96.40;;;;;;4966992;28;20034;-83
2023/08/05 03:18:41;;;;;;;1.85;0.85;;;21.50;96.40;;;;;;4965864;28;20034;-83
2023/08/05 03:21:07;;;;;;;4.22;1.13;;;21.50;96.40;;;;;;4960830;28;20365;-84
2023/08/05 03:23:34;;;;;;;1.00;0.80;;;21.60;96.40;;;;;;4976211;28;20050;-82
2023/08/05 03:25:59;;;;;;;0.93;0.73;;;21.50;96.40;;;;;;4972775;28;20354;-83
2023/08/05 03:28:25;;;;;;;0.75;0.60;;;21.50;96.40;;;;;;4968806;28;20436;-84
2023/08/05 03:30:51;;;;;;;1.52;0.80;;;21.50;96.30;;;;;;4973578;28;20037;-84
2023/08/05 03:33:17;;;;;;;2.97;0.82;;;21.50;96.30;;;;;;4971939;28;20039;-84
2023/08/05 03:35:43;;;;;;;1.95;1.25;;;21.50;96.40;;;;;;4959045;28;20035;-84
2023/08/05 03:38:09;;;;;;;3.42;0.90;;;21.50;96.40;;;;;;4965025;28;20103;-82
2023/08/05 03:40:41;;;;;;;0.80;0.60;;;21.50;96.40;;;;;;4974961;28;20023;-82
2023/08/05 03:43:07;;;;;;;2.33;1.08;;;21.50;96.40;;;;;;4944861;29;20066;-82
2023/08/05 03:45:33;;;;;;;1.88;1.20;;;21.40;96.50;;;;;;4940586;28;20066;-82
2023/08/05 03:47:58;;;;;;;1.17;0.70;;;21.40;96.30;;;;;;4944294;28;20045;-82
2023/08/05 03:50:28;;;;;;;1.60;0.70;;;21.30;96.10;;;;;;4967473;28;20473;-84
2023/08/05 03:52:54;;;;;;;3.50;1.30;;;21.30;96.10;;;;;;4973694;28;20041;-83
2023/08/05 03:55:20;;;;;;;1.05;0.60;;;21.20;95.90;;;;;;4961927;28;20039;-84
2023/08/05 03:57:47;;;;;;;0.50;0.50;;;21.10;95.90;;;;;;4958087;28;20074;-84
2023/08/05 04:00:12;;;;;;;0.32;0.32;;;21.10;96.00;;;;;;4970392;28;20058;-83
2023/08/05 04:02:38;;;;;;;0.38;0.30;;;21.20;96.00;;;;;;4965142;28;20066;-84
2023/08/05 04:05:06;;;;;;;0.80;0.30;;;21.20;95.90;;;;;;4957901;28;20047;-83
2023/08/05 04:07:31;;;;;;;1.17;0.47;;;21.10;95.50;;;;;;4969380;28;20081;-82
2023/08/05 04:09:57;;;;;;;0.32;0.30;;;21.10;95.70;;;;;;4960907;28;21635;-81
2023/08/05 04:12:23;;;;;;;0.40;0.30;;;21.10;95.50;;;;;;4964228;28;20086;-81
2023/08/05 04:14:52;;;;;;;2.30;0.43;;;21.10;95.60;;;;;;4968103;28;20503;-84
2023/08/05 04:17:19;;;;;;;0.50;0.50;;;21.20;95.60;;;;;;4967469;28;20027;-85
2023/08/05 04:19:47;;;;;;;0.30;0.30;;;21.10;95.20;;;;;;4954858;28;20038;-78
2023/08/05 04:22:16;;;;;;;1.45;0.43;;;21.10;95.50;;;;;;4951456;28;20034;-78
2023/08/05 04:24:45;;;;;;;0.38;0.30;;;21.10;95.40;;;;;;4967549;28;20466;-78
2023/08/05 04:27:10;;;;;;;0.80;0.30;;;21.00;95.40;;;;;;4961612;28;20019;-78
2023/08/05 04:29:36;;;;;;;0.50;0.40;;;20.90;95.20;;;;;;4953183;28;20053;-78
2023/08/05 04:32:02;;;;;;;0.20;0.20;;;20.90;95.40;;;;;;4970661;28;20031;-78
2023/08/05 04:34:33;;;;;;;0.73;0.38;;;20.80;95.60;;;;;;4968441;28;20474;-78
2023/08/05 04:37:21;;;;;;;0.20;0.20;;;20.70;95.40;;;;;;4963072;28;20054;-77
2023/08/05 04:39:47;;;;;;;5.30;0.45;;;20.70;95.70;;;;;;4956522;28;20031;-77
2023/08/05 04:42:13;;;;;;;2.25;0.20;;;20.80;95.60;;;;;;4970257;28;20110;-77
2023/08/05 04:44:40;;;;;;;0.32;0.30;;;20.80;95.70;;;;;;4958671;28;20129;-78
2023/08/05 04:47:09;;;;;;;0.30;0.30;;;20.80;95.80;;;;;;4961719;28;20109;-78
2023/08/05 04:49:35;;;;;;;1.33;0.43;;;20.90;95.70;;;;;;4959386;28;20033;-79
2023/08/05 04:52:05;;;;;;;0.65;0.40;;;20.80;95.50;;;;;;4970331;28;20488;-79
2023/08/05 04:54:44;;;;;;;0.80;0.40;;;20.80;95.70;;;;;;4960117;28;20423;-79
2023/08/05 04:57:10;;;;;;;1.25;0.20;;;20.70;95.80;;;;;;4951154;28;20053;-83
2023/08/05 04:59:36;;;;;;;2.15;0.40;;;20.70;95.90;;;;;;4970607;28;20022;-84
2023/08/05 05:02:02;;;;;;;1.02;0.40;;;20.70;96.00;;;;;;4968869;28;20045;-85
2023/08/05 05:04:28;;;;;;;0.63;0.40;;;20.70;96.10;;;;;;4967519;28;20030;-84
2023/08/05 05:06:54;;;;;;;2.35;0.32;;;20.60;96.20;;;;;;4959323;28;20034;-84
2023/08/05 05:09:20;;;;;;;0.28;0.28;;;20.60;96.20;;;;;;4961998;28;20385;-85
2023/08/05 05:11:45;;;;;;;1.40;0.40;;;20.70;96.20;;;;;;4946249;28;20035;-84
2023/08/05 05:14:11;;;;;;;0.30;0.30;;;20.70;96.20;;;;;;4958475;28;20073;-84
2023/08/05 05:16:37;;;;;;;2.67;0.40;;;20.70;96.10;;;;;;4964911;28;20065;-83
2023/08/05 05:19:02;;;;;;;0.73;0.32;;;20.70;96.10;;;;;;4948186;28;20067;-88
2023/08/05 05:21:29;;;;;;;0.35;0.30;;;20.80;95.90;;;;;;4969341;28;20023;-85
2023/08/05 05:23:55;;;;;;;1.50;0.45;;;20.80;96.00;;;;;;4957519;28;20106;-83
2023/08/05 05:26:20;;;;;;;0.65;0.40;;;20.80;96.10;;;;;;4966378;28;20170;-84
2023/08/05 05:28:46;;;;;;;0.30;0.30;;;20.80;96.00;;;;;;4955164;28;20443;-87
2023/08/05 05:31:12;;;;;;;0.20;0.20;;;20.80;96.10;;;;;;4962971;28;20406;-87
2023/08/05 05:33:37;;;;;;;0.90;0.45;;;20.80;96.00;;;;;;4969496;28;20045;-86
2023/08/05 05:36:03;;;;;;;1.38;0.60;;;20.90;96.00;;;;;;4974339;28;20134;-86
2023/08/05 05:38:29;;;;;;;1.08;0.50;;;20.90;96.10;;;;;;4970723;28;20024;-87
2023/08/05 05:40:55;;;;;;;1.13;0.47;;;20.80;96.30;;;;;;4964330;28;20688;-86
2023/08/05 05:43:20;;;;;;;2.22;0.75;;;20.80;96.50;;;;;;4973828;28;20026;-87
2023/08/05 05:45:49;;;;;;;1.70;0.88;;;20.90;96.60;;;;;;4960340;28;20035;-87
2023/08/05 05:48:15;;;;;;;0.85;0.50;;;20.90;96.60;;;;;;4964451;28;20035;-87
2023/08/05 05:50:43;;;;;;;1.00;0.60;;;21.00;96.70;;;;;;4957262;28;20374;-87
2023/08/05 05:53:13;;;;;;;1.08;0.65;;;21.00;96.60;;;;;;4966381;28;20527;-78
2023/08/05 05:55:41;;;;;;;1.88;0.70;;;21.00;96.50;;;;;;4968109;28;20069;-78
2023/08/05 05:58:07;;;;;;;1.25;0.65;;;21.00;96.70;;;;;;4948356;28;20436;-83
2023/08/05 06:00:33;;;;;;;1.25;0.50;;;21.00;96.70;;;;;;4970272;28;20102;-85
2023/08/05 06:03:00;;;;;;;0.70;0.38;;;21.00;96.50;;;;;;4951398;28;20098;-85
2023/08/05 06:05:26;;;;;;;0.77;0.40;;;20.90;96.10;;;;;;4974276;28;20054;-84
2023/08/05 06:07:51;;;;;;;1.08;0.32;;;20.90;96.30;;;;;;4961502;28;20031;-84
2023/08/05 06:10:17;;;;;;;0.47;0.30;;;20.90;96.00;;;;;;4973118;28;20027;-84
2023/08/05 06:12:43;;;;;;;1.65;0.50;;;20.80;95.90;;;;;;4970107;28;20054;-85
2023/08/05 06:15:09;;;;;;;0.32;0.32;;;20.70;96.10;;;;;;4973320;28;20042;-84
2023/08/05 06:17:35;;;;;;;2.92;0.43;;;20.70;96.30;;;;;;4966462;28;20042;-83
2023/08/05 06:20:00;;;;;;;1.20;0.40;;;20.60;96.30;;;;;;4971578;28;20026;-79
2023/08/05 06:22:26;;;;;;;1.58;0.30;;;20.50;96.30;;;;;;4968693;28;20034;-79
2023/08/05 06:24:52;;;;;;;1.35;0.50;;;20.50;96.30;;;;;;4966000;28;20492;-81
2023/08/05 06:27:17;;;;;;;0.32;0.22;;;20.60;96.10;;;;;;4948898;28;20031;-83
2023/08/05 06:29:44;;;;;;;0.98;0.30;;;20.60;96.20;;;;;;4973629;28;20035;-82
2023/08/05 06:32:09;;;;;;;1.75;0.22;;;20.50;96.20;;;;;;4969080;28;20031;-82
2023/08/05 06:34:35;;;;;;;0.20;0.20;;;20.50;96.30;;;;;;4966747;28;20022;-82
2023/08/05 06:37:01;;;;;;;0.60;0.20;;;20.50;96.10;;;;;;4970099;28;20038;-83
2023/08/05 06:39:26;;;;;;;1.15;0.57;;;20.60;96.10;;;;;;4969310;28;20046;-83
2023/08/05 06:41:52;;;;;;;1.08;0.30;;;20.60;96.00;;;;;;4972378;28;20027;-82
2023/08/05 06:44:18;;;;;;;0.08;0.05;;;20.60;95.90;;;;;;4970668;28;20039;-81
2023/08/05 06:46:43;;;;;;;0.90;0.30;;;20.60;95.90;;;;;;4951298;28;20039;-82
2023/08/05 06:49:10;;;;;;;0.10;0.10;;;20.60;96.00;;;;;;4965432;28;20038;-77
2023/08/05 06:51:37;;;;;;;0.68;0.10;;;20.60;96.00;;;;;;4976666;28;20019;-83
2023/08/05 06:54:03;;;;;;;0.50;0.15;;;20.70;96.00;;;;;;4968046;28;20085;-81
2023/08/05 06:56:28;;;;;;;2.92;0.30;;;20.70;95.90;;;;;;4948657;28;20396;-82
2023/08/05 06:58:55;;;;;;;0.28;0.15;;;20.60;95.90;;;;;;4967316;28;20037;-82
2023/08/05 07:01:20;;;;;;;0.47;0.20;;;20.70;95.80;;;;;;4960302;28;20413;-81
2023/08/05 07:03:46;;;;;;;0.20;0.20;;;20.70;95.80;;;;;;4965393;28;20035;-81
2023/08/05 07:06:12;;;;;;;0.28;0.20;;;20.70;95.80;;;;;;4965642;28;20055;-81
2023/08/05 07:08:37;;;;;;;0.50;0.20;;;20.70;95.50;;;;;;4969536;28;20141;-81
2023/08/05 07:11:03;;;;;;;0.22;0.10;;;20.70;95.30;;;;;;4974039;28;20413;-81
2023/08/05 07:13:29;;;;;;;0.15;0.10;;;20.60;95.40;;;;;;4957913;28;20469;-81
2023/08/05 07:16:01;;;;;;;1.52;0.20;;;20.70;95.50;;;;;;4968378;28;20050;-81
2023/08/05 07:18:28;;;;;;;1.10;0.20;;;20.70;95.20;;;;;;4966777;28;20102;-81
2023/08/05 07:20:54;;;;;;;0.45;0.10;;;20.60;95.20;;;;;;4946825;28;20988;-81
2023/08/05 07:23:20;;;;;;;0.20;0.10;;;20.60;95.50;;;;;;4958175;28;20046;-81
2023/08/05 07:25:47;;;;;;;0.80;0.25;;;20.50;95.60;;;;;;4966894;28;20027;-81
2023/08/05 07:28:12;;;;;;;2.00;0.22;;;20.50;95.60;;;;;;4968549;28;20074;-81
2023/08/05 07:30:39;;;;;;;0.40;0.20;;;20.50;95.60;;;;;;4959397;28;20026;-81
2023/08/05 07:33:07;;;;;;;1.60;0.30;;;20.50;95.70;;;;;;4975716;28;20035;-81
2023/08/05 07:35:33;;;;;;;0.50;0.25;;;20.50;95.80;;;;;;4974966;28;20030;-81
2023/08/05 07:38:03;;;;;;;0.10;0.10;;;20.50;95.60;;;;;;4975593;28;20034;-79
2023/08/05 07:40:30;;;;;;;0.50;0.22;;;20.50;95.70;;;;;;4956405;28;20078;-80
2023/08/05 07:42:56;;;;;;;3.13;0.25;;;20.50;95.70;;;;;;4962975;28;20034;-80
2023/08/05 07:45:22;;;;;;;0.20;0.10;;;20.60;95.80;;;;;;4975655;28;20027;-80
2023/08/05 07:47:48;;;;;;;0.10;0.10;;;20.60;95.80;;;;;;4966925;28;20034;-80
2023/08/05 07:50:16;;;;;;;0.50;0.08;;;20.70;95.80;;;;;;4975942;28;20022;-80
2023/08/05 07:52:43;;;;;;;0.85;0.20;;;20.70;95.30;;;;;;4968029;28;20110;-81
2023/08/05 07:55:08;;;;;;;0.47;0.20;;;20.70;95.70;;;;;;4971558;28;20038;-79
2023/08/05 07:57:35;;;;;;;0.55;0.28;;;20.70;95.50;;;;;;4951649;29;20040;-80
2023/08/05 08:00:01;;;;;;;0.10;0.03;;;20.80;95.10;;;;;;4957180;28;20034;-81
2023/08/05 08:02:26;;;;;;;0.22;0.10;;;20.80;94.70;;;;;;4994740;28;20018;-81
2023/08/05 08:04:57;;;;;;;0.20;0.10;;;20.80;94.90;;;;;;4990789;28;20094;-82
2023/08/05 08:07:23;;;;;;;1.02;0.10;;;20.70;94.70;;;;;;4979538;28;20422;-81
2023/08/05 08:09:49;;;;;;;0.10;0.10;;;20.70;94.80;;;;;;4987632;28;20074;-81
2023/08/05 08:12:15;;;;;;;0.15;0.10;;;20.70;94.90;;;;;;4968519;28;20578;-81
2023/08/05 08:14:40;;;;;;;0.63;0.20;;;20.80;94.80;;;;;;4959450;28;20057;-80
2023/08/05 08:17:06;;;;;;;0.82;0.20;;;20.90;95.10;;;;;;4967919;28;20027;-81
2023/08/05 08:19:32;;;;;;;2.28;0.17;;;21.00;95.30;;;;;;4971255;28;20019;-81
2023/08/05 08:21:57;;;;;;;0.65;0.15;;;21.10;95.20;;;;;;4974789;28;20042;-81
2023/08/05 08:24:23;;;;;;;1.20;0.10;;;21.10;94.90;;;;;;4972507;28;20025;-85
2023/08/05 08:26:48;;;;;;;0.30;0.10;;;21.20;94.90;;;;;;4968540;28;20466;-85
2023/08/05 08:29:14;;;;;;;0.10;0.10;;;21.10;94.70;;;;;;4967852;28;20019;-87
2023/08/05 08:31:40;;;;;;;1.52;0.28;;;21.10;95.00;;;;;;4964048;28;20086;-87
2023/08/05 08:34:05;;;;;;;1.40;0.28;;;21.20;94.90;;;;;;4955881;28;20150;-86
2023/08/05 08:36:31;;;;;;;1.17;0.30;;;21.20;94.90;;;;;;4971917;28;20047;-86
2023/08/05 08:38:57;;;;;;;0.08;0.08;;;21.10;94.70;;;;;;4956451;28;20062;-88
2023/08/05 08:41:24;;;;;;;0.43;0.03;;;21.10;94.70;;;;;;4960914;28;20030;-87
2023/08/05 08:43:51;;;;;;;1.77;0.30;;;21.00;95.00;;;;;;4954998;28;20155;-88
2023/08/05 08:46:19;;;;;;;0.17;0.10;;;21.10;95.10;;;;;;4969911;28;20037;-86
2023/08/05 08:48:48;;;;;;;3.42;0.30;;;21.20;95.10;;;;;;4958959;28;20117;-90
2023/08/05 08:51:17;;;;;;;0.52;0.30;;;21.30;94.50;;;;;;4973777;28;20078;-89
2023/08/05 08:53:45;;;;;;;1.05;0.20;;;21.30;94.80;;;;;;4963740;28;20047;-89
2023/08/05 08:56:11;;;;;;;0.10;0.10;;;21.30;94.40;;;;;;4966755;28;20093;-87
2023/08/05 08:58:37;;;;;;;0.00;0.00;;;21.40;94.60;;;;;;4969939;28;20058;-87
2023/08/05 09:01:04;;;;;;;1.17;0.10;;;21.40;94.30;;;;;;4955578;28;20142;-88
2023/08/05 09:03:32;;;;;;;0.35;0.15;;;21.40;94.30;;;;;;4969016;28;20038;-87
2023/08/05 09:05:59;;;;;;;0.10;0.10;;;21.50;94.40;;;;;;4971410;28;20047;-86
2023/08/05 09:08:25;;;;;;;0.13;0.10;;;21.60;94.80;;;;;;4969704;28;20110;-88
2023/08/05 09:10:51;;;;;;;0.32;0.10;;;21.70;93.80;;;;;;4953279;28;20031;-93
2023/08/05 09:13:17;;;;;;;0.82;0.20;;;21.80;94.00;;;;;;4970264;28;20419;-89
2023/08/05 09:15:43;;;;;;;0.43;0.10;;;21.90;93.80;;;;;;4967820;28;20022;-88
2023/08/05 09:18:09;;;;;;;0.20;0.10;;;22.00;93.90;;;;;;4966318;28;20033;-93
2023/08/05 09:20:36;;;;;;;0.38;0.20;;;22.00;93.20;;;;;;4965766;28;20109;-87
2023/08/05 09:23:07;;;;;;;0.30;0.10;;;22.00;92.50;;;;;;4961579;28;20027;-86
2023/08/05 09:25:41;;;;;;;0.08;0.00;;;21.80;92.70;;;;;;4969826;28;20034;-86
2023/08/05 09:28:08;;;;;;;0.08;0.08;;;21.60;92.30;;;;;;4965757;28;20102;-86
2023/08/05 09:30:34;;;;;;;1.42;0.35;;;21.50;92.90;;;;;;4965412;28;20039;-91
2023/08/05 09:33:00;;;;;;;0.28;0.10;;;21.40;92.90;;;;;;4963442;28;20098;-85
2023/08/05 09:35:26;;;;;;;0.57;0.20;;;21.50;93.20;;;;;;4963799;28;20091;-85
2023/08/05 09:37:54;;;;;;;0.20;0.20;;;21.50;93.50;;;;;;4965073;28;20457;-85
2023/08/05 09:40:32;;;;;;;0.38;0.10;;;21.60;93.30;;;;;;4967908;28;20027;-84
2023/08/05 09:42:59;;;;;;;1.33;0.30;;;21.70;93.20;;;;;;4958411;28;20023;-83
2023/08/05 09:45:27;;;;;;;0.73;0.40;;;21.60;92.50;;;;;;4972049;28;20038;-83
2023/08/05 09:48:03;;;;;;;0.20;0.20;;;21.60;93.00;;;;;;4971209;28;20023;-82
2023/08/05 09:50:36;;;;;;;0.95;0.20;;;21.60;92.60;;;;;;4957905;28;20417;-81
2023/08/05 09:53:08;;;;;;;0.20;0.20;;;21.50;92.60;;;;;;4960982;28;20077;-81
2023/08/05 09:55:38;;;;;;;0.15;0.13;;;21.60;92.80;;;;;;4970983;28;20035;-81
2023/08/05 09:58:07;;;;;;;2.45;0.20;;;21.50;92.60;;;;;;4958665;28;20026;-81
2023/08/05 10:00:36;;;;;;;0.50;0.10;;;21.60;93.00;;;;;;4964131;28;20035;-85
2023/08/05 10:03:06;;;;;;;0.10;0.10;;;21.70;93.00;;;;;;4971626;28;20508;-84
2023/08/05 10:05:31;;;;;;;;;;;21.70;92.60;;;;;;4973676;28;20149;-85
2023/08/05 10:07:59;;;;;;;0.28;0.10;;;21.70;92.40;;;;;;4973553;28;20376;-86
2023/08/05 10:10:25;;;;;;;0.15;0.00;;;21.60;91.80;;;;;;4976341;28;20023;-86
2023/08/05 10:12:57;;;;;;;0.93;0.30;;;21.70;92.50;;;;;;4972893;28;20031;-85
2023/08/05 10:15:35;;;;;;;0.20;0.20;;;21.70;92.20;;;;;;4978032;28;20033;-86
2023/08/05 10:18:01;;;;;;;0.10;0.10;;;21.60;92.10;;;;;;4975913;28;20042;-86
2023/08/05 10:20:35;;;;;;;0.45;0.20;;;21.60;92.30;;;;;;4977337;28;20491;-89
2023/08/05 10:23:03;;;;;;;0.10;0.00;;;21.60;92.20;;;;;;4975792;28;20027;-86
2023/08/05 10:25:39;;;;;;;1.05;0.20;;;21.60;92.40;;;;;;4972344;28;20543;-87
2023/08/05 10:28:06;;;;;;;0.22;0.10;;;21.60;92.10;;;;;;4970642;28;20374;-87
2023/08/05 10:30:41;;;;;;;0.22;0.10;;;21.60;91.90;;;;;;4976907;28;20106;-84
2023/08/05 10:33:06;;;;;;;0.40;0.10;;;21.70;92.30;;;;;;4975058;28;20035;-84
2023/08/05 10:35:39;;;;;;;0.10;0.10;;;21.70;92.40;;;;;;4975323;28;20027;-84
2023/08/05 10:38:21;;;;;;;3.60;0.35;;;21.70;92.40;;;;;;4972420;28;20174;-79
2023/08/05 10:40:46;;;;;;;0.30;0.20;;;21.80;92.10;;;;;;4976625;28;20027;-79
2023/08/05 10:43:31;;;;;;;0.30;0.20;;;21.80;91.90;;;;;;4945405;28;20046;-79
2023/08/05 10:46:05;;;;;;;0.75;0.43;;;21.90;92.00;;;;;;4966739;28;20115;-79
2023/08/05 10:48:34;;;;;;;0.15;0.10;;;21.90;92.20;;;;;;4968178;28;20034;-79
2023/08/05 10:51:07;;;;;;;0.10;0.10;;;22.00;92.20;;;;;;4972525;28;20038;-79
2023/08/05 10:53:32;;;;;;;0.45;0.15;;;22.00;92.20;;;;;;4959946;28;20039;-79
2023/08/05 10:55:58;;;;;;;0.55;0.30;;;22.10;92.30;;;;;;4943763;29;20038;-78
2023/08/05 10:58:27;;;;;;;3.72;0.30;;;22.20;92.30;;;;;;4960790;28;20046;-79
2023/08/05 11:01:04;;;;;;;0.52;0.20;;;22.20;92.10;;;;;;4966851;28;20027;-82
2023/08/05 11:03:42;;;;;;;0.20;0.10;;;22.20;92.40;;;;;;4972461;28;20039;-78
2023/08/05 11:06:09;;;;;;;0.80;0.20;;;22.10;92.50;;;;;;4971167;28;20039;-79
2023/08/05 11:08:37;;;;;;;0.30;0.22;;;22.20;92.40;;;;;;4974459;28;20038;-78
2023/08/05 11:11:10;;;;;;;0.10;0.10;;;22.20;92.40;;;;;;4971820;28;20031;-78
2023/08/05 11:13:37;;;;;;;0.65;0.17;;;22.30;92.20;;;;;;4965233;28;20050;-78
2023/08/05 11:16:24;;;;;;;0.25;0.25;;;22.30;92.50;;;;;;4964269;28;20121;-78
2023/08/05 11:18:57;;;;;;;0.50;0.20;;;22.30;92.30;;;;;;4965855;28;20054;-77
2023/08/05 11:21:23;;;;;;;0.20;0.13;;;22.30;92.00;;;;;;4973479;28;20023;-85
2023/08/05 11:23:49;;;;;;;0.95;0.30;;;22.30;91.90;;;;;;4967751;28;20042;-86
2023/08/05 11:26:20;;;;;;;0.73;0.30;;;22.30;92.20;;;;;;4976884;28;20121;-85
2023/08/05 11:28:46;;;;;;;0.70;0.32;;;22.40;92.20;;;;;;4973125;28;20069;-84
2023/08/05 11:31:25;;;;;;;0.52;0.22;;;22.50;92.20;;;;;;4957658;28;20137;-83
2023/08/05 11:33:52;;;;;;;0.40;0.30;;;22.50;92.20;;;;;;4956399;28;20085;-84
2023/08/05 11:36:28;;;;;;;0.40;0.20;;;22.40;92.10;;;;;;4965370;28;20024;-84
2023/08/05 11:38:57;;;;;;;1.58;0.30;;;22.50;92.10;;;;;;4973768;28;20039;-78
2023/08/05 11:41:24;;;;;;;0.43;0.13;;;22.50;92.30;;;;;;4966419;28;20408;-78
2023/08/05 11:43:50;;;;;;;0.20;0.20;;;22.50;92.50;;;;;;4974746;28;20031;-78
2023/08/05 11:46:29;;;;;;;0.40;0.20;;;22.60;92.40;;;;;;4957088;28;20472;-79
2023/08/05 11:49:11;;;;;;;0.40;0.22;;;22.70;92.50;;;;;;4972406;28;20027;-79
2023/08/05 11:51:53;;;;;;;0.43;0.20;;;22.70;92.50;;;;;;4951890;28;20027;-79
2023/08/05 11:54:30;;;;;;;0.80;0.52;;;22.80;92.70;;;;;;4965391;28;20032;-79
2023/08/05 11:56:56;;;;;;;0.40;0.40;;;22.90;92.70;;;;;;4965442;28;20038;-78
2023/08/05 11:59:45;;;;;;;1.00;0.43;;;23.00;92.80;;;;;;4969761;28;20469;-79
2023/08/05 12:02:12;;;;;;;0.82;0.60;;;23.00;92.90;;;;;;4962372;28;20059;-78
2023/08/05 12:04:49;;;;;;;1.27;0.45;;;23.10;93.10;;;;;;4958326;28;20046;-78
2023/08/05 12:07:21;;;;;;;1.33;0.82;;;23.10;93.10;;;;;;4963100;28;20039;-84
2023/08/05 12:10:08;;;;;;;6.53;0.60;;;23.20;93.20;;;;;;4966620;28;20528;-85
2023/08/05 12:12:35;;;;;;;1.05;0.77;;;23.20;93.30;;;;;;4959762;28;20036;-85
2023/08/05 12:15:24;;;;;;;1.08;0.50;;;23.20;93.10;;;;;;4971122;28;20026;-85
2023/08/05 12:17:52;;;;;;;1.05;0.50;;;23.20;93.10;;;;;;4962199;28;20113;-84
2023/08/05 12:20:19;;;;;;;1.85;0.68;;;23.10;93.10;;;;;;4964295;28;20031;-84
2023/08/05 12:22:45;;;;;;;0.90;0.50;;;23.10;92.90;;;;;;4965511;28;20038;-84
2023/08/05 12:25:11;;;;;;;0.90;0.40;;;23.00;92.70;;;;;;4949856;28;20038;-84
2023/08/05 12:27:37;;;;;;;0.47;0.20;;;22.90;91.60;;;;;;4964629;28;20043;-84
2023/08/05 12:30:05;;;;;;;0.40;0.20;;;22.90;91.70;;;;;;4962931;28;20044;-84
2023/08/05 12:32:30;;;;;;;0.63;0.20;;;22.80;91.30;;;;;;4941633;28;20509;-84
2023/08/05 12:34:56;;;;;;;1.08;0.30;;;22.80;91.50;;;;;;4949896;28;20103;-84
2023/08/05 12:37:22;;;;;;;0.25;0.25;;;22.80;91.40;;;;;;4967416;28;20037;-84
2023/08/05 12:39:47;;;;;;;0.50;0.50;;;22.80;91.30;;;;;;4965169;28;20023;-83
2023/08/05 12:42:13;;;;;;;0.22;0.22;;;22.80;91.40;;;;;;4966739;28;20037;-84
2023/08/05 12:44:39;;;;;;;1.15;0.50;;;22.70;91.30;;;;;;4966665;28;20093;-84
2023/08/05 12:47:04;;;;;;;0.40;0.15;;;22.70;91.30;;;;;;4971972;28;20026;-84
2023/08/05 12:49:30;;;;;;;0.50;0.30;;;22.80;91.60;;;;;;4970619;28;20085;-84
2023/08/05 12:51:56;;;;;;;0.73;0.35;;;22.80;91.30;;;;;;4967218;28;20050;-84